Time;durP1;ratioP1;P1;durP2;ratioP2;P2;SDS_P1;SDS_P2;PMS_P1;PMS_P2;Temp;Humidity;BMP_temperature;BMP_pressure;BME280_temperature;BME280_humidity;BME280_pressure;Samples;Min_cycle;Max_cycle;Signal;HPM_P1;HPM_P2
2022/10/13 00:01:52;;;;;;;19.83;12.43;;;;;;;11.54;100.00;154323.03;5019018;28;20791;-88
2022/10/13 00:04:20;;;;;;;14.60;12.17;;;;;;;11.52;100.00;154319.09;5027345;28;20497;-87
2022/10/13 00:06:47;;;;;;;17.17;12.13;;;;;;;11.55;100.00;154325.59;5013379;28;20788;-87
2022/10/13 00:09:14;;;;;;;15.43;11.20;;;;;;;11.53;100.00;154320.41;5010910;28;20786;-87
2022/10/13 00:11:40;;;;;;;17.80;12.23;;;;;;;11.52;100.00;154319.09;5014519;28;20478;-88
2022/10/13 00:14:07;;;;;;;13.77;11.50;;;;;;;11.52;100.00;154317.81;5017472;28;20437;-88
2022/10/13 00:16:35;;;;;;;17.17;11.93;;;;;;;11.48;100.00;154307.47;5011237;28;20515;-88
2022/10/13 00:19:02;;;;;;;15.07;11.90;;;;;;;11.48;100.00;154307.47;5031929;28;20448;-87
2022/10/13 00:21:30;;;;;;;16.30;11.93;;;;;;;11.46;100.00;154303.53;5034790;28;20479;-87
2022/10/13 00:23:56;;;;;;;14.23;10.80;;;;;;;11.46;100.00;154302.28;5036055;28;20502;-87
2022/10/13 00:26:25;;;;;;;17.00;11.77;;;;;;;11.45;100.00;154300.97;5013826;28;20523;-88
2022/10/13 00:28:52;;;;;;;13.83;11.00;;;;;;;11.45;100.00;154299.69;5015092;28;20444;-87
2022/10/13 00:31:20;;;;;;;19.70;12.30;;;;;;;11.46;100.00;154302.28;5014662;28;20788;-87
2022/10/13 00:33:48;;;;;;;16.43;12.20;;;;;;;11.48;100.00;154307.47;4998443;28;20863;-88
2022/10/13 00:36:15;;;;;;;17.97;12.60;;;;;;;11.50;100.00;154312.63;5025153;28;20447;-87
2022/10/13 00:38:43;;;;;;;18.00;12.47;;;;;;;11.51;100.00;154315.25;5033569;28;20451;-87
2022/10/13 00:41:10;;;;;;;21.50;14.47;;;;;;;11.55;100.00;154326.88;5035279;28;20440;-87
2022/10/13 00:43:58;;;;;;;20.33;15.33;;;;;;;11.55;100.00;154325.59;5034512;28;20818;-87
2022/10/13 00:46:28;;;;;;;22.07;15.07;;;;;;;11.54;100.00;154324.28;5034192;28;20435;-87
2022/10/13 00:49:00;;;;;;;17.70;13.70;;;;;;;11.55;100.00;154325.59;5034420;28;20447;-87
2022/10/13 00:51:30;;;;;;;20.70;13.43;;;;;;;11.53;100.00;154321.72;5034059;28;20467;-88
2022/10/13 00:53:59;;;;;;;17.70;12.80;;;;;;;11.52;100.00;154317.81;5015016;28;20448;-88
2022/10/13 00:56:26;;;;;;;17.90;13.43;;;;;;;11.53;100.00;154320.41;5030581;28;20440;-87
2022/10/13 00:58:53;;;;;;;20.40;14.67;;;;;;;11.52;100.00;154317.81;5035350;28;20829;-88
2022/10/13 01:01:20;;;;;;;21.30;15.07;;;;;;;11.50;100.00;154313.94;5034916;28;20448;-87
2022/10/13 01:03:47;;;;;;;21.77;13.03;;;;;;;11.52;100.00;154317.81;5037300;28;20442;-87
2022/10/13 01:06:14;;;;;;;22.77;14.33;;;;;;;11.53;100.00;154320.41;5024688;28;20456;-87
2022/10/13 01:08:40;;;;;;;18.20;13.63;;;;;;;11.56;100.00;154328.19;5017926;28;20452;-88
2022/10/13 01:11:21;;;;;;;23.97;14.87;;;;;;;11.60;100.00;154338.53;5017663;28;20808;-88
2022/10/13 01:13:52;;;;;;;24.30;16.20;;;;;;;11.58;100.00;154333.38;5035779;28;20534;-88
2022/10/13 01:16:23;;;;;;;20.17;15.27;;;;;;;11.56;100.00;154328.19;5034257;28;20527;-88
2022/10/13 01:18:56;;;;;;;19.30;14.60;;;;;;;11.56;100.00;154328.19;5033451;28;20467;-88
2022/10/13 01:21:26;;;;;;;19.03;15.17;;;;;;;11.52;100.00;154317.81;5034270;28;20416;-88
2022/10/13 01:24:28;;;;;;;17.50;14.20;;;;;;;11.53;100.00;154320.41;5033841;28;20454;-88
2022/10/13 01:27:05;;;;;;;21.60;15.33;;;;;;;11.50;100.00;154312.63;5028408;28;20456;-88
2022/10/13 01:29:52;;;;;;;21.67;14.87;;;;;;;11.50;100.00;154312.63;5025936;28;20447;-87
2022/10/13 01:32:25;;;;;;;18.23;13.60;;;;;;;11.51;100.00;154315.25;5013953;28;20514;-87
2022/10/13 01:35:00;;;;;;;23.47;14.47;;;;;;;11.53;100.00;154321.72;5014167;28;20431;-87
2022/10/13 01:37:30;;;;;;;18.77;15.30;;;;;;;11.51;100.00;154315.25;5028207;28;20462;-87
2022/10/13 01:40:03;;;;;;;23.03;14.57;;;;;;;11.52;100.00;154317.81;5034254;28;20439;-87
2022/10/13 01:42:34;;;;;;;23.70;15.30;;;;;;;11.53;100.00;154320.41;5014643;28;20479;-87
2022/10/13 01:45:03;;;;;;;24.40;16.13;;;;;;;11.55;100.00;154325.59;5013329;28;20515;-87
2022/10/13 01:47:32;;;;;;;23.60;14.90;;;;;;;11.56;100.00;154328.19;5012994;28;20468;-87
2022/10/13 01:49:59;;;;;;;19.13;14.83;;;;;;;11.58;100.00;154333.38;5033211;28;20780;-87
2022/10/13 01:52:27;;;;;;;18.40;14.57;;;;;;;11.55;100.00;154326.88;5033283;28;20509;-87
2022/10/13 01:54:54;;;;;;;19.70;15.43;;;;;;;11.55;100.00;154325.59;5032970;28;20562;-87
2022/10/13 01:57:31;;;;;;;17.97;14.20;;;;;;;11.54;100.00;154323.03;5045589;28;20470;-87
2022/10/13 01:59:58;;;;;;;21.13;14.23;;;;;;;11.55;100.00;154325.59;5028669;28;20844;-87
2022/10/13 02:02:32;;;;;;;21.73;14.40;;;;;;;11.54;100.00;154324.28;5013272;28;20557;-87
2022/10/13 02:05:06;;;;;;;22.77;17.30;;;;;;;11.53;100.00;154320.41;5023724;28;20471;-87
2022/10/13 02:07:38;;;;;;;19.60;15.43;;;;;;;11.57;100.00;154332.06;5029113;28;20490;-87
2022/10/13 02:10:09;;;;;;;19.20;14.27;;;;;;;11.60;100.00;154339.84;5032340;28;20451;-87
2022/10/13 02:12:39;;;;;;;23.77;17.33;;;;;;;11.62;100.00;154343.75;5016473;28;20452;-87
2022/10/13 02:15:09;;;;;;;26.30;15.57;;;;;;;11.62;100.00;154345.00;5029405;28;20440;-87
2022/10/13 02:17:37;;;;;;;23.43;14.80;;;;;;;11.66;100.00;154352.78;5047092;28;20455;-87
2022/10/13 02:20:06;;;;;;;25.17;16.93;;;;;;;11.67;100.00;154356.72;5032289;28;20987;-88
2022/10/13 02:22:38;;;;;;;22.50;16.30;;;;;;;11.68;100.00;154359.28;5015850;28;20954;-88
2022/10/13 02:25:06;;;;;;;31.73;17.67;;;;;;;11.69;100.00;154360.63;5032690;28;20464;-88
2022/10/13 02:27:33;;;;;;;27.03;15.50;;;;;;;11.70;100.00;154364.53;5033182;28;20458;-88
2022/10/13 02:29:59;;;;;;;22.60;15.30;;;;;;;11.68;100.00;154359.28;5033456;28;20483;-88
2022/10/13 02:32:29;;;;;;;24.00;15.10;;;;;;;11.74;100.00;154373.59;5033077;28;20459;-87
2022/10/13 02:34:57;;;;;;;23.53;14.77;;;;;;;11.74;100.00;154373.59;5032069;28;20539;-88
2022/10/13 02:37:24;;;;;;;22.10;14.40;;;;;;;11.75;100.00;154377.50;5031710;28;20462;-88
2022/10/13 02:39:51;;;;;;;20.27;14.00;;;;;;;11.74;100.00;154373.59;5031675;28;20452;-88
2022/10/13 02:42:19;;;;;;;24.70;15.70;;;;;;;11.74;100.00;154374.88;5030933;28;20480;-86
2022/10/13 02:44:46;;;;;;;21.20;14.77;;;;;;;11.77;100.00;154382.66;5033391;28;20952;-88
2022/10/13 02:47:13;;;;;;;23.47;15.23;;;;;;;11.77;100.00;154382.66;5034098;28;20458;-88
2022/10/13 02:49:39;;;;;;;20.10;15.10;;;;;;;11.76;100.00;154380.06;5013074;28;20821;-88
2022/10/13 02:52:07;;;;;;;22.87;15.20;;;;;;;11.75;100.00;154377.50;5032023;28;20460;-88
2022/10/13 02:54:37;;;;;;;21.67;16.90;;;;;;;11.74;100.00;154374.88;5032124;28;20853;-88
2022/10/13 02:57:04;;;;;;;24.80;16.73;;;;;;;11.74;100.00;154373.59;5031317;28;20750;-88
2022/10/13 02:59:30;;;;;;;21.70;14.77;;;;;;;11.75;100.00;154377.50;5031109;28;20463;-88
2022/10/13 03:01:57;;;;;;;20.60;14.17;;;;;;;11.75;100.00;154377.50;5031841;28;20448;-88
2022/10/13 03:04:25;;;;;;;22.00;15.30;;;;;;;11.75;100.00;154377.50;5034656;28;20456;-88
2022/10/13 03:06:53;;;;;;;22.87;14.03;;;;;;;11.77;100.00;154381.38;5037742;28;20452;-88
2022/10/13 03:09:21;;;;;;;22.73;14.57;;;;;;;11.77;100.00;154382.66;5034317;28;20616;-88
2022/10/13 03:11:48;;;;;;;16.80;13.50;;;;;;;11.80;100.00;154389.16;5016733;28;20916;-88
2022/10/13 03:14:15;;;;;;;22.70;15.00;;;;;;;11.81;100.00;154393.00;5031106;28;20854;-88
2022/10/13 03:16:41;;;;;;;20.70;15.30;;;;;;;11.81;100.00;154391.75;5030864;28;20459;-88
2022/10/13 03:19:09;;;;;;;18.93;15.97;;;;;;;11.81;100.00;154393.00;5030668;28;20483;-88
2022/10/13 03:21:37;;;;;;;21.80;14.50;;;;;;;11.81;100.00;154391.75;5013808;28;20452;-88
2022/10/13 03:24:04;;;;;;;21.27;14.27;;;;;;;11.81;100.00;154393.00;5031312;28;20543;-88
2022/10/13 03:26:32;;;;;;;22.93;15.73;;;;;;;11.84;100.00;154400.78;5012831;28;20579;-88
2022/10/13 03:28:59;;;;;;;19.27;15.00;;;;;;;11.82;100.00;154395.63;5026950;28;21019;-87
2022/10/13 03:31:25;;;;;;;19.47;14.13;;;;;;;11.80;100.00;154390.44;5030451;28;20440;-88
2022/10/13 03:34:00;;;;;;;20.43;14.37;;;;;;;11.80;100.00;154390.44;5032092;28;20486;-88
2022/10/13 03:36:26;;;;;;;18.40;13.40;;;;;;;11.80;100.00;154390.44;5030828;28;20452;-88
2022/10/13 03:38:53;;;;;;;17.73;14.00;;;;;;;11.83;100.00;154398.22;5030375;28;20444;-88
2022/10/13 03:41:20;;;;;;;25.10;15.63;;;;;;;11.78;100.00;154385.22;5030210;28;20970;-88
2022/10/13 03:43:51;;;;;;;15.90;13.17;;;;;;;11.76;100.00;154378.75;5029378;28;20514;-88
2022/10/13 03:46:18;;;;;;;18.57;14.43;;;;;;;11.71;100.00;154367.09;5030124;28;20486;-88
2022/10/13 03:48:45;;;;;;;21.17;14.83;;;;;;;11.69;100.00;154361.94;5031589;28;20455;-88
2022/10/13 03:51:17;;;;;;;22.27;15.00;;;;;;;11.65;100.00;154351.50;5029685;28;20999;-88
2022/10/13 03:53:49;;;;;;;22.33;13.80;;;;;;;11.61;100.00;154341.16;5020380;28;20463;-87
2022/10/13 03:56:19;;;;;;;18.43;13.90;;;;;;;11.62;100.00;154343.75;5030240;28;20546;-88
2022/10/13 03:58:53;;;;;;;20.57;13.83;;;;;;;11.58;100.00;154333.38;5030867;28;20431;-88
2022/10/13 04:01:20;;;;;;;21.47;15.13;;;;;;;11.57;100.00;154330.75;5026277;28;20968;-88
2022/10/13 04:03:48;;;;;;;16.37;14.20;;;;;;;11.56;100.00;154328.19;5029873;28;20459;-88
2022/10/13 04:06:15;;;;;;;22.13;14.17;;;;;;;11.54;100.00;154323.03;5029666;28;20827;-88
2022/10/13 04:08:41;;;;;;;16.77;13.23;;;;;;;11.54;100.00;154323.03;5032060;28;20962;-87
2022/10/13 04:11:11;;;;;;;17.50;13.50;;;;;;;11.49;100.00;154310.06;5029255;28;20462;-87
2022/10/13 04:13:40;;;;;;;15.60;11.30;;;;;;;11.48;100.00;154307.47;5015427;28;20459;-87
2022/10/13 04:16:12;;;;;;;15.97;12.57;;;;;;;11.50;100.00;154312.63;5017880;28;20441;-87
2022/10/13 04:18:38;;;;;;;18.00;12.80;;;;;;;11.52;100.00;154317.81;5012825;28;20448;-87
2022/10/13 04:21:08;;;;;;;15.27;11.17;;;;;;;11.51;100.00;154315.25;5030704;28;20497;-87
2022/10/13 04:23:34;;;;;;;16.03;11.83;;;;;;;11.52;100.00;154317.81;5031226;28;20470;-87
2022/10/13 04:26:01;;;;;;;17.07;13.43;;;;;;;11.51;100.00;154316.53;5031738;28;20491;-87
2022/10/13 04:28:28;;;;;;;17.40;11.97;;;;;;;11.49;100.00;154310.06;5029979;28;20444;-87
2022/10/13 04:30:54;;;;;;;15.67;11.50;;;;;;;11.46;100.00;154302.28;5029651;28;20443;-87
2022/10/13 04:33:22;;;;;;;14.80;12.33;;;;;;;11.44;100.00;154297.06;5024934;28;20456;-87
2022/10/13 04:35:49;;;;;;;15.13;11.50;;;;;;;11.42;100.00;154291.91;5030282;28;20502;-87
2022/10/13 04:38:16;;;;;;;19.90;12.40;;;;;;;11.41;100.00;154289.34;5029524;28;20962;-87
2022/10/13 04:40:42;;;;;;;16.87;12.40;;;;;;;11.38;100.00;154281.56;5029307;28;20480;-87
2022/10/13 04:43:09;;;;;;;15.40;11.17;;;;;;;11.36;100.00;154277.63;5029767;28;20569;-87
2022/10/13 04:45:36;;;;;;;15.57;12.40;;;;;;;11.38;100.00;154282.84;5029651;28;20666;-87
2022/10/13 04:48:02;;;;;;;14.37;12.40;;;;;;;11.39;100.00;154284.13;5029204;28;20865;-87
2022/10/13 04:50:30;;;;;;;15.87;12.57;;;;;;;11.41;100.00;154290.59;5031037;28;20428;-87
2022/10/13 04:53:00;;;;;;;18.07;12.13;;;;;;;11.43;100.00;154295.81;5025516;28;20478;-87
2022/10/13 04:55:27;;;;;;;15.17;12.03;;;;;;;11.42;100.00;154293.19;5028985;28;20479;-87
2022/10/13 04:57:53;;;;;;;17.77;12.17;;;;;;;11.40;100.00;154288.03;5038525;28;20455;-87
2022/10/13 05:00:20;;;;;;;15.83;11.73;;;;;;;11.44;100.00;154298.38;5028681;28;20448;-87
2022/10/13 05:02:47;;;;;;;15.90;13.17;;;;;;;11.45;100.00;154299.69;5020066;28;20534;-86
2022/10/13 05:05:13;;;;;;;16.30;12.57;;;;;;;11.46;100.00;154302.28;5010647;28;20489;-87
2022/10/13 05:07:41;;;;;;;17.30;12.00;;;;;;;11.46;100.00;154302.28;5033084;28;20458;-86
2022/10/13 05:10:09;;;;;;;18.47;13.77;;;;;;;11.46;100.00;154303.53;5039444;28;20512;-87
2022/10/13 05:12:36;;;;;;;17.70;12.20;;;;;;;11.48;100.00;154308.75;5009781;28;20840;-88
2022/10/13 05:15:02;;;;;;;17.47;12.33;;;;;;;11.46;100.00;154303.53;5013950;28;20455;-87
2022/10/13 05:17:31;;;;;;;17.73;12.43;;;;;;;11.43;100.00;154295.81;5024509;28;20857;-87
2022/10/13 05:19:57;;;;;;;21.73;12.33;;;;;;;11.46;100.00;154302.28;5021624;28;20460;-87
2022/10/13 05:22:24;;;;;;;18.53;12.90;;;;;;;11.43;100.00;154295.81;5020124;28;20447;-87
2022/10/13 05:24:52;;;;;;;15.30;11.90;;;;;;;11.41;100.00;154289.34;5023370;28;20451;-87
2022/10/13 05:27:20;;;;;;;18.63;13.20;;;;;;;11.41;100.00;154289.34;5027470;28;20955;-87
2022/10/13 05:29:46;;;;;;;17.43;11.97;;;;;;;11.39;100.00;154284.13;5024250;28;20495;-87
2022/10/13 05:32:13;;;;;;;14.70;11.47;;;;;;;11.42;100.00;154291.91;5022591;28;20460;-87
2022/10/13 05:34:40;;;;;;;16.00;12.27;;;;;;;11.43;100.00;154294.50;5031516;28;20452;-87
2022/10/13 05:37:06;;;;;;;17.83;12.17;;;;;;;11.42;100.00;154291.91;5027134;28;20480;-87
2022/10/13 05:39:33;;;;;;;20.23;11.73;;;;;;;11.45;100.00;154299.69;5022599;28;20452;-87
2022/10/13 05:42:01;;;;;;;17.77;12.60;;;;;;;11.42;100.00;154291.91;5045011;28;20444;-87
2022/10/13 05:44:28;;;;;;;16.20;12.07;;;;;;;11.42;100.00;154291.91;5051437;28;20508;-88
2022/10/13 05:46:55;;;;;;;15.90;11.53;;;;;;;11.41;100.00;154290.59;5009670;28;20471;-88
2022/10/13 05:49:22;;;;;;;15.17;11.50;;;;;;;11.41;100.00;154289.34;5042142;28;20462;-87
2022/10/13 05:51:51;;;;;;;17.27;12.87;;;;;;;11.42;100.00;154291.91;5022009;28;20807;-87
2022/10/13 05:54:21;;;;;;;17.40;12.17;;;;;;;11.41;100.00;154290.59;5020969;28;20471;-89
2022/10/13 05:56:51;;;;;;;19.30;12.87;;;;;;;11.39;100.00;154284.13;5030020;28;20462;-88
2022/10/13 05:59:20;;;;;;;18.07;11.90;;;;;;;11.42;100.00;154291.91;5006618;28;20468;-87
2022/10/13 06:01:47;;;;;;;17.60;11.87;;;;;;;11.38;100.00;154281.56;5023531;28;20547;-88
2022/10/13 06:04:17;;;;;;;17.80;12.90;;;;;;;11.41;100.00;154289.34;5026166;28;20557;-87
2022/10/13 06:06:45;;;;;;;19.37;14.53;;;;;;;11.40;100.00;154286.72;5034667;28;20594;-89
2022/10/13 06:09:12;;;;;;;19.27;12.27;;;;;;;11.42;100.00;154293.19;5034139;28;20470;-86
2022/10/13 06:11:39;;;;;;;18.30;12.67;;;;;;;11.43;100.00;154294.50;5024452;28;20463;-89
2022/10/13 06:14:05;;;;;;;17.87;12.43;;;;;;;11.43;100.00;154295.81;5022288;28;20951;-87
2022/10/13 06:16:36;;;;;;;18.70;13.10;;;;;;;11.47;100.00;154304.84;5042258;28;20539;-87
2022/10/13 06:19:03;;;;;;;18.60;13.43;;;;;;;11.50;100.00;154312.63;5031910;28;20456;-89
2022/10/13 06:21:31;;;;;;;20.40;13.20;;;;;;;11.54;100.00;154324.28;5042102;28;20463;-87
2022/10/13 06:23:57;;;;;;;17.47;13.00;;;;;;;11.56;100.00;154328.19;5034718;28;20456;-88
2022/10/13 06:26:24;;;;;;;18.27;11.87;;;;;;;11.58;100.00;154333.38;5034745;28;20475;-87
2022/10/13 06:28:51;;;;;;;19.33;13.63;;;;;;;11.63;100.00;154346.31;5027727;28;20461;-86
2022/10/13 06:31:18;;;;;;;17.90;12.77;;;;;;;11.70;100.00;154364.53;5010995;28;20532;-87
2022/10/13 06:33:46;;;;;;;18.20;13.63;;;;;;;11.68;100.00;154359.28;5010604;28;20465;-88
2022/10/13 06:36:13;;;;;;;20.33;12.10;;;;;;;11.70;100.00;154364.53;5026343;28;20452;-88
2022/10/13 06:38:39;;;;;;;16.90;13.07;;;;;;;11.71;100.00;154367.09;5024092;28;20452;-88
2022/10/13 06:41:06;;;;;;;19.10;13.20;;;;;;;11.73;100.00;154372.28;5030702;28;20459;-89
2022/10/13 06:43:36;;;;;;;18.43;12.93;;;;;;;11.71;100.00;154367.09;5030700;28;20877;-88
2022/10/13 06:46:05;;;;;;;19.93;13.57;;;;;;;11.73;100.00;154372.28;5031319;28;20464;-88
2022/10/13 06:48:32;;;;;;;16.50;11.77;;;;;;;11.69;100.00;154361.94;5008827;28;20570;-87
2022/10/13 06:51:02;;;;;;;18.57;12.47;;;;;;;11.68;100.00;154357.97;5020609;28;20490;-87
2022/10/13 06:53:29;;;;;;;22.40;15.13;;;;;;;11.71;100.00;154367.09;5038699;28;20459;-87
2022/10/13 06:55:56;;;;;;;17.87;13.17;;;;;;;11.78;100.00;154383.97;5025112;28;20594;-87
2022/10/13 06:58:23;;;;;;;15.30;12.10;;;;;;;11.79;100.00;154386.53;5035723;28;20459;-87
2022/10/13 07:00:50;;;;;;;20.50;12.17;;;;;;;11.82;100.00;154394.31;5020789;28;20513;-88
2022/10/13 07:03:16;;;;;;;18.67;12.87;;;;;;;11.83;100.00;154398.22;5022618;28;20535;-87
2022/10/13 07:05:43;;;;;;;20.63;13.03;;;;;;;11.86;100.00;154405.97;5022886;28;20872;-82
2022/10/13 07:08:11;;;;;;;18.70;12.90;;;;;;;11.88;100.00;154411.19;5028354;28;20457;-87
2022/10/13 07:10:39;;;;;;;17.87;11.80;;;;;;;11.92;100.00;154421.53;5030007;28;20459;-87
2022/10/13 07:13:05;;;;;;;21.07;13.87;;;;;;;11.94;100.00;154426.72;5019032;28;20542;-87
2022/10/13 07:15:34;;;;;;;18.60;13.17;;;;;;;11.96;100.00;154430.63;5037336;28;20471;-87
2022/10/13 07:18:01;;;;;;;20.00;13.73;;;;;;;11.95;100.00;154429.31;5017207;28;20534;-87
2022/10/13 07:20:30;;;;;;;17.97;12.90;;;;;;;11.94;100.00;154425.47;5017025;28;20453;-89
2022/10/13 07:22:57;;;;;;;17.73;13.00;;;;;;;11.96;100.00;154431.94;5023623;28;20455;-88
2022/10/13 07:25:26;;;;;;;23.20;13.77;;;;;;;12.01;100.00;154444.91;5020586;28;20459;-88
2022/10/13 07:27:53;;;;;;;19.27;13.30;;;;;;;12.05;100.00;154455.25;5016912;28;20897;-88
2022/10/13 07:30:20;;;;;;;23.57;14.27;;;;;;;12.08;100.00;154461.72;5017553;28;20474;-87
2022/10/13 07:32:47;;;;;;;15.97;12.00;;;;;;;12.11;100.00;154470.81;5016776;28;20468;-88
2022/10/13 07:35:13;;;;;;;14.63;10.87;;;;;;;12.16;100.00;154482.47;5018336;28;20441;-88
2022/10/13 07:37:40;;;;;;;19.37;11.63;;;;;;;12.19;100.00;154491.56;5017206;28;20460;-88
2022/10/13 07:40:21;;;;;;;19.43;12.07;;;;;;;12.23;100.00;154501.91;5036062;28;20440;-88
2022/10/13 07:43:11;;;;;;;17.20;12.90;;;;;;;12.31;100.00;154520.09;5018185;28;20529;-88
2022/10/13 07:45:45;;;;;;;18.00;11.77;;;;;;;12.36;100.00;154533.03;5016983;28;21111;-88
2022/10/13 07:48:12;;;;;;;18.53;11.90;;;;;;;12.45;100.00;154556.34;5021349;28;20568;-88
2022/10/13 07:50:45;;;;;;;15.90;11.20;;;;;;;12.50;100.00;154569.31;5014242;28;20547;-88
2022/10/13 07:53:42;;;;;;;15.80;11.40;;;;;;;12.56;100.00;154584.91;5017502;28;20534;-87
2022/10/13 07:56:16;;;;;;;19.47;10.80;;;;;;;12.58;100.00;154590.06;5017095;28;20456;-87
2022/10/13 07:58:45;;;;;;;15.30;11.40;;;;;;;12.63;100.00;154603.03;5019342;28;20462;-87
2022/10/13 08:01:13;;;;;;;16.13;11.70;;;;;;;12.64;100.00;154605.66;5036414;28;20491;-88
2022/10/13 08:03:40;;;;;;;16.10;12.10;;;;;;;12.72;100.00;154626.41;5018304;28;20825;-88
2022/10/13 08:06:08;;;;;;;17.40;10.63;;;;;;;12.81;100.00;154649.75;5027483;28;20480;-88
2022/10/13 08:08:35;;;;;;;15.37;10.80;;;;;;;12.92;100.00;154677.00;5038515;28;20534;-88
2022/10/13 08:11:02;;;;;;;17.40;10.90;;;;;;;13.00;100.00;154697.75;5018697;28;20444;-87
2022/10/13 08:13:31;;;;;;;15.03;11.10;;;;;;;13.09;100.00;154721.13;5027346;28;20524;-88
2022/10/13 08:16:06;;;;;;;16.07;11.67;;;;;;;13.10;100.00;154725.06;5046792;28;20462;-88
2022/10/13 08:18:33;;;;;;;16.73;10.33;;;;;;;13.15;100.00;154736.72;5026879;28;20458;-88
2022/10/13 08:21:00;;;;;;;16.23;10.13;;;;;;;13.14;100.00;154734.09;5021010;28;20456;-88
2022/10/13 08:23:27;;;;;;;16.67;10.60;;;;;;;13.15;100.00;154738.03;5031994;28;20440;-88
2022/10/13 08:25:54;;;;;;;14.70;10.20;;;;;;;13.17;100.00;154743.22;5016431;28;21342;-88
2022/10/13 08:28:23;;;;;;;14.03;9.80;;;;;;;13.23;100.00;154757.47;5002059;28;20448;-88
2022/10/13 08:30:50;;;;;;;15.43;11.20;;;;;;;13.26;100.00;154766.53;5018160;28;20535;-87
2022/10/13 08:33:18;;;;;;;16.87;9.30;;;;;;;13.27;100.00;154769.13;5021464;28;21047;-88
2022/10/13 08:35:45;;;;;;;14.43;9.90;;;;;;;13.31;100.00;154779.56;5019190;28;20498;-88
2022/10/13 08:38:13;;;;;;;13.00;9.67;;;;;;;13.34;100.00;154787.28;5017242;28;20443;-88
2022/10/13 08:40:41;;;;;;;10.57;8.47;;;;;;;13.50;100.00;154826.25;5027096;28;20517;-87
2022/10/13 08:43:15;;;;;;;16.53;8.73;;;;;;;13.47;100.00;154818.47;5018465;28;21021;-88
2022/10/13 08:45:51;;;;;;;13.43;8.83;;;;;;;13.62;100.00;154857.38;5020734;28;20826;-88
2022/10/13 08:48:25;;;;;;;12.63;9.60;;;;;;;13.73;100.00;154885.94;5019142;28;20598;-88
2022/10/13 08:51:28;;;;;;;12.47;9.27;;;;;;;13.79;100.00;154901.53;5020236;28;20482;-88
2022/10/13 08:54:05;;;;;;;10.67;8.30;;;;;;;13.75;100.00;154891.13;5004425;28;20553;-88
2022/10/13 08:56:50;;;;;;;18.73;9.77;;;;;;;13.77;100.00;154896.31;5012093;28;20459;-88
2022/10/13 08:59:25;;;;;;;10.97;8.77;;;;;;;13.78;100.00;154900.22;5019781;28;20456;-88
2022/10/13 09:02:13;;;;;;;12.13;8.87;;;;;;;13.83;100.00;154911.91;5036439;28;20468;-88
2022/10/13 09:04:51;;;;;;;12.43;9.87;;;;;;;13.84;100.00;154914.50;5022537;28;20827;-89
2022/10/13 09:07:19;;;;;;;14.23;11.00;;;;;;;13.85;100.00;154917.06;5030132;28;20462;-88
2022/10/13 09:09:50;;;;;;;12.40;9.43;;;;;;;13.92;100.00;154935.28;5034638;28;20472;-88
2022/10/13 09:12:23;;;;;;;12.43;9.90;;;;;;;14.02;100.00;154961.25;5037538;28;20530;-89
2022/10/13 09:15:00;;;;;;;14.70;8.60;;;;;;;14.07;100.00;154972.91;4989568;28;20986;-89
2022/10/13 09:17:28;;;;;;;13.20;8.67;;;;;;;14.13;100.00;154988.50;5024988;28;20491;-89
2022/10/13 09:20:01;;;;;;;10.70;8.40;;;;;;;14.15;100.00;154993.69;5022035;28;20467;-89
2022/10/13 09:22:29;;;;;;;10.17;7.97;;;;;;;14.19;100.00;155004.09;5045244;28;20501;-87
2022/10/13 09:25:15;;;;;;;14.03;8.50;;;;;;;14.17;100.00;155000.19;5035148;28;20451;-88
2022/10/13 09:27:44;;;;;;;15.33;7.90;;;;;;;14.18;100.00;155002.78;5022033;28;20499;-76
2022/10/13 09:30:33;;;;;;;12.00;9.10;;;;;;;14.20;100.00;155007.97;5020145;28;20507;-76
2022/10/13 09:33:16;;;;;;;9.03;8.13;;;;;;;14.26;100.00;155022.25;5017801;28;20977;-75
2022/10/13 09:35:46;;;;;;;12.27;8.10;;;;;;;14.30;100.00;155033.94;5014480;28;20454;-76
2022/10/13 09:38:15;;;;;;;13.57;8.37;;;;;;;14.33;100.00;155041.78;5018177;28;20904;-76
2022/10/13 09:40:43;;;;;;;12.20;8.50;;;;;;;14.38;100.00;155054.75;5005428;28;20503;-75
2022/10/13 09:43:24;;;;;;;10.83;8.37;;;;;;;14.43;100.00;155067.75;5013004;28;20505;-76
2022/10/13 09:45:51;;;;;;;15.10;7.83;;;;;;;14.46;100.00;155075.53;5024376;28;20456;-76
2022/10/13 09:48:21;;;;;;;10.20;7.60;;;;;;;14.52;100.00;155091.16;5021189;28;20532;-77
2022/10/13 09:50:50;;;;;;;10.60;7.30;;;;;;;14.53;100.00;155093.72;5016552;28;20973;-75
2022/10/13 09:53:22;;;;;;;9.50;7.67;;;;;;;14.57;100.00;155104.13;5018126;28;20451;-76
2022/10/13 09:55:49;;;;;;;9.80;7.47;;;;;;;14.59;100.00;155108.00;5022265;28;20445;-75
2022/10/13 09:58:22;;;;;;;9.90;7.43;;;;;;;14.66;100.00;155124.91;5018650;28;20454;-75
2022/10/13 10:00:51;;;;;;;10.37;7.57;;;;;;;14.78;100.00;155156.06;5021396;28;20440;-76
2022/10/13 10:03:22;;;;;;;8.40;7.40;;;;;;;14.84;100.00;155171.66;5024439;28;20455;-75
2022/10/13 10:05:54;;;;;;;16.87;7.50;;;;;;;14.82;100.00;155166.47;5020592;28;20448;-75
2022/10/13 10:08:26;;;;;;;10.73;7.43;;;;;;;14.83;100.00;155169.06;5018215;28;20991;-75
2022/10/13 10:10:53;;;;;;;9.23;6.93;;;;;;;14.87;100.00;155179.47;5021341;28;20607;-76
2022/10/13 10:13:21;;;;;;;8.73;7.43;;;;;;;15.03;100.00;155222.34;5019872;28;20459;-75
2022/10/13 10:15:53;;;;;;;10.70;7.20;;;;;;;15.20;100.00;155265.19;5017768;28;20453;-75
2022/10/13 10:18:26;;;;;;;12.33;7.47;;;;;;;15.16;100.00;155254.81;5020633;28;20587;-76
2022/10/13 10:21:04;;;;;;;11.30;8.47;;;;;;;15.18;100.00;155260.00;5006211;28;20452;-76
2022/10/13 10:23:39;;;;;;;7.17;6.47;;;;;;;15.16;100.00;155254.81;5021908;28;20459;-76
2022/10/13 10:26:09;;;;;;;6.80;6.20;;;;;;;15.20;100.00;155266.50;5018900;28;20946;-76
2022/10/13 10:29:09;;;;;;;9.80;6.63;;;;;;;15.21;100.00;155267.81;5016343;28;20481;-76
2022/10/13 10:31:50;;;;;;;9.03;6.40;;;;;;;15.26;100.00;155280.81;5016610;28;20447;-76
2022/10/13 10:34:28;;;;;;;7.27;6.10;;;;;;;15.23;100.00;155274.31;5020468;28;20455;-76
2022/10/13 10:37:16;;;;;;;9.33;7.07;;;;;;;15.19;100.00;155262.63;5018425;28;20433;-76
2022/10/13 10:39:47;;;;;;;7.67;6.20;;;;;;;15.16;100.00;155254.81;5031690;28;20457;-76
2022/10/13 10:42:31;;;;;;;10.20;6.27;;;;;;;15.13;100.00;155247.03;5022379;28;21041;-77
2022/10/13 10:44:59;;;;;;;7.70;6.23;;;;;;;15.17;100.00;155257.41;5019838;28;20538;-75
2022/10/13 10:47:28;;;;;;;10.80;6.73;;;;;;;15.16;100.00;155256.13;5017593;28;20487;-75
2022/10/13 10:49:58;;;;;;;10.80;6.93;;;;;;;15.10;100.00;155239.22;5001696;28;20456;-75
2022/10/13 10:52:28;;;;;;;7.77;6.80;;;;;;;15.10;100.00;155239.22;5017138;28;20950;-76
2022/10/13 10:55:02;;;;;;;8.07;7.27;;;;;;;15.13;100.00;155248.34;5017790;28;20455;-76
2022/10/13 10:57:35;;;;;;;8.67;6.23;;;;;;;15.14;100.00;155250.91;5020704;28;20766;-76
2022/10/13 11:00:05;;;;;;;7.70;6.47;;;;;;;15.15;100.00;155252.22;5019333;28;20447;-76
2022/10/13 11:02:44;;;;;;;9.17;6.83;;;;;;;15.22;100.00;155270.44;5019124;28;20440;-76
2022/10/13 11:05:11;;;;;;;7.83;7.03;;;;;;;15.24;100.00;155275.63;5021716;28;20451;-76
2022/10/13 11:07:59;;;;;;;9.27;6.83;;;;;;;15.26;100.00;155280.81;5017079;28;20480;-76
2022/10/13 11:10:27;;;;;;;8.90;7.43;;;;;;;15.27;100.00;155284.69;5007364;28;20444;-76
2022/10/13 11:13:21;;;;;;;10.80;7.20;;;;;;;15.46;100.00;155331.56;5015155;28;20463;-76
2022/10/13 11:15:47;;;;;;;8.47;6.30;;;;;;;15.45;100.00;155328.91;5020132;28;20451;-76
2022/10/13 11:18:51;;;;;;;11.90;7.30;;;;;;;15.49;100.00;155340.63;5031501;28;20459;-76